Time;durP1;ratioP1;P1;durP2;ratioP2;P2;SDS_P1;SDS_P2;PMS_P1;PMS_P2;Temp;Humidity;BMP_temperature;BMP_pressure;BME280_temperature;BME280_humidity;BME280_pressure;Samples;Min_cycle;Max_cycle;Signal;HPM_P1;HPM_P2
2021/12/05 00:21:58;;;;;;;10.00;5.13;;;9.60;85.00;;;;;;5016871;28;20409;-80
2021/12/05 00:24:28;;;;;;;10.18;5.43;;;9.60;85.00;;;;;;5015535;28;20021;-80
2021/12/05 00:27:00;;;;;;;10.32;5.13;;;9.60;85.10;;;;;;5016865;28;20508;-80
2021/12/05 00:29:48;;;;;;;11.88;6.05;;;9.60;85.00;;;;;;5016756;28;20022;-79
2021/12/05 00:32:23;;;;;;;11.80;5.70;;;9.60;84.80;;;;;;5015554;28;20030;-80
2021/12/05 00:38:01;;;;;;;13.65;6.65;;;9.70;84.80;;;;;;5016714;28;20022;-79
2021/12/05 00:48:40;;;;;;;15.52;7.47;;;9.70;84.10;;;;;;5015836;28;20022;-79
2021/12/05 00:56:22;;;;;;;17.17;7.70;;;9.70;84.00;;;;;;5016055;28;20018;-79
2021/12/05 01:04:42;;;;;;;14.85;8.10;;;9.70;83.80;;;;;;5004855;28;20396;-80
2021/12/05 01:07:22;;;;;;;14.25;8.50;;;9.70;83.70;;;;;;5015162;28;20029;-79
2021/12/05 01:15:06;;;;;;;11.38;8.43;;;9.70;83.60;;;;;;5015185;28;20018;-79
2021/12/05 01:17:57;;;;;;;16.08;8.50;;;9.70;83.50;;;;;;5013589;28;20122;-79
2021/12/05 01:20:22;;;;;;;13.60;8.93;;;9.70;83.70;;;;;;5014611;28;20521;-79
2021/12/05 01:22:58;;;;;;;15.90;9.05;;;9.70;83.70;;;;;;5013480;28;20034;-80
2021/12/05 01:25:42;;;;;;;16.40;9.88;;;9.60;83.70;;;;;;5014400;28;20105;-80
2021/12/05 01:28:27;;;;;;;15.93;9.00;;;9.60;84.30;;;;;;5013089;28;20033;-79
2021/12/05 01:31:06;;;;;;;16.75;9.50;;;9.60;84.00;;;;;;5013261;28;20028;-80
2021/12/05 01:36:33;;;;;;;18.05;9.85;;;9.50;84.30;;;;;;5015901;28;20029;-79
2021/12/05 02:08:19;;;;;;;16.70;9.80;;;9.40;84.80;;;;;;5014864;28;20036;-79
2021/12/05 02:10:58;;;;;;;13.98;10.00;;;9.40;84.80;;;;;;5014239;28;20030;-79
2021/12/05 02:16:43;;;;;;;14.52;9.13;;;9.40;84.70;;;;;;5014293;28;20072;-78
2021/12/05 02:33:22;;;;;;;14.02;9.02;;;9.40;84.60;;;;;;5005324;28;20042;-79
2021/12/05 02:36:19;;;;;;;16.70;9.20;;;9.40;84.50;;;;;;5011890;28;20565;-78
2021/12/05 02:39:03;;;;;;;14.07;9.23;;;9.40;84.50;;;;;;5013151;28;20084;-79
2021/12/05 02:41:27;;;;;;;15.73;8.85;;;9.30;84.40;;;;;;5013405;28;20029;-78
2021/12/05 02:44:02;;;;;;;14.32;8.55;;;9.40;84.40;;;;;;5028083;28;20117;-78
2021/12/05 02:46:28;;;;;;;14.95;8.90;;;9.40;84.40;;;;;;5011442;28;20025;-78
2021/12/05 02:48:59;;;;;;;14.13;8.90;;;9.40;84.40;;;;;;5011832;28;20401;-78
2021/12/05 02:51:28;;;;;;;13.70;8.30;;;9.30;84.20;;;;;;5011864;28;20030;-78
2021/12/05 02:54:15;;;;;;;14.63;7.97;;;9.40;84.30;;;;;;5027985;28;20030;-78
2021/12/05 02:56:44;;;;;;;12.68;8.73;;;9.40;84.30;;;;;;5028452;28;20030;-78
2021/12/05 03:01:56;;;;;;;12.05;7.63;;;9.40;84.20;;;;;;5013212;28;20038;-78
2021/12/05 03:04:24;;;;;;;11.10;6.78;;;9.40;84.30;;;;;;5011718;28;20025;-78
2021/12/05 03:06:52;;;;;;;12.82;7.35;;;9.30;84.20;;;;;;5013042;28;20437;-79
2021/12/05 03:09:19;;;;;;;12.85;7.20;;;9.30;84.10;;;;;;5011455;28;20022;-79
2021/12/05 03:11:46;;;;;;;13.02;7.00;;;9.30;84.10;;;;;;5011528;28;20053;-79
2021/12/05 03:14:12;;;;;;;11.95;6.82;;;9.30;84.00;;;;;;5012701;28;20037;-79
2021/12/05 03:16:39;;;;;;;11.85;6.78;;;9.30;83.90;;;;;;5011700;28;20026;-78
2021/12/05 03:19:07;;;;;;;12.00;6.57;;;9.30;83.90;;;;;;5011077;28;20030;-79
2021/12/05 03:21:35;;;;;;;11.25;5.70;;;9.30;83.80;;;;;;5011593;28;20445;-78
2021/12/05 03:24:01;;;;;;;14.98;5.88;;;9.30;83.90;;;;;;5012550;28;20045;-78
2021/12/05 03:26:30;;;;;;;11.38;5.65;;;9.30;83.80;;;;;;5011363;28;20029;-78
2021/12/05 03:28:57;;;;;;;10.73;5.00;;;9.30;83.80;;;;;;5012974;28;20357;-78
2021/12/05 03:31:24;;;;;;;12.38;5.72;;;9.30;83.80;;;;;;5030203;28;20055;-78
2021/12/05 03:33:52;;;;;;;12.95;5.97;;;9.30;83.80;;;;;;5037244;28;20381;-79
2021/12/05 03:36:17;;;;;;;12.32;5.63;;;9.30;83.80;;;;;;5055826;28;20021;-80
2021/12/05 03:38:43;;;;;;;9.77;5.32;;;9.30;83.70;;;;;;5055476;28;20031;-79
2021/12/05 03:41:11;;;;;;;10.63;5.22;;;9.30;83.80;;;;;;5056795;28;20032;-79
2021/12/05 03:43:37;;;;;;;13.07;5.95;;;9.30;83.70;;;;;;5055413;28;20575;-79
2021/12/05 03:46:05;;;;;;;14.07;5.40;;;9.30;83.60;;;;;;5055153;28;20065;-78
2021/12/05 03:48:42;;;;;;;11.10;5.38;;;9.30;83.60;;;;;;5055094;28;20029;-78
2021/12/05 03:51:12;;;;;;;12.57;4.95;;;9.30;83.70;;;;;;5056082;28;20024;-78
2021/12/05 03:53:37;;;;;;;10.35;5.57;;;9.30;83.60;;;;;;5055158;28;20082;-79
2021/12/05 03:56:05;;;;;;;11.15;4.80;;;9.30;83.50;;;;;;5055446;28;20116;-78
2021/12/05 03:58:32;;;;;;;11.38;5.10;;;9.30;83.50;;;;;;5055555;28;20523;-79
2021/12/05 04:00:59;;;;;;;10.15;5.63;;;9.30;83.60;;;;;;5055040;28;20059;-79
2021/12/05 04:03:28;;;;;;;10.82;5.13;;;9.30;83.70;;;;;;5055011;28;20035;-79
2021/12/05 04:05:54;;;;;;;9.57;4.80;;;9.30;83.70;;;;;;5054835;28;20476;-78
2021/12/05 04:08:23;;;;;;;12.95;5.30;;;9.30;83.60;;;;;;5054528;28;20059;-78
2021/12/05 04:10:54;;;;;;;11.38;4.75;;;9.30;83.60;;;;;;5054435;28;20061;-78
2021/12/05 04:13:20;;;;;;;11.32;5.32;;;9.30;83.70;;;;;;5054577;28;20074;-79
2021/12/05 04:15:49;;;;;;;12.68;5.57;;;9.30;83.60;;;;;;5054950;28;20060;-79
2021/12/05 04:18:15;;;;;;;11.82;5.00;;;9.30;83.60;;;;;;5054506;28;20467;-79
2021/12/05 04:20:41;;;;;;;10.20;4.68;;;9.30;83.70;;;;;;5054133;28;20021;-78
2021/12/05 04:23:06;;;;;;;10.02;4.82;;;9.30;83.80;;;;;;5054175;28;20454;-79
2021/12/05 04:25:36;;;;;;;10.82;4.82;;;9.30;83.90;;;;;;5054309;28;20488;-79
2021/12/05 04:28:02;;;;;;;10.95;4.80;;;9.30;84.00;;;;;;5054175;28;20025;-79
2021/12/05 04:30:27;;;;;;;10.35;4.20;;;9.30;84.10;;;;;;5053706;28;20407;-78
2021/12/05 04:32:54;;;;;;;11.43;4.20;;;9.30;84.20;;;;;;5053814;28;20420;-78
2021/12/05 04:35:20;;;;;;;10.10;4.32;;;9.30;84.30;;;;;;5054946;28;20021;-79
2021/12/05 04:37:45;;;;;;;10.85;5.25;;;9.30;84.20;;;;;;5053620;28;20036;-78
2021/12/05 04:40:11;;;;;;;10.85;4.38;;;9.30;84.20;;;;;;5054637;28;20024;-79
2021/12/05 04:42:37;;;;;;;10.27;4.53;;;9.30;84.20;;;;;;5054942;28;20377;-78
2021/12/05 04:45:06;;;;;;;9.93;4.05;;;9.30;84.10;;;;;;5052927;28;20027;-78
2021/12/05 04:47:31;;;;;;;11.07;4.03;;;9.30;84.00;;;;;;5053198;28;20037;-78
2021/12/05 04:49:57;;;;;;;9.30;4.07;;;9.30;84.00;;;;;;5054291;28;20029;-79
2021/12/05 04:52:23;;;;;;;8.88;3.90;;;9.30;83.90;;;;;;5055273;28;20472;-79
2021/12/05 04:54:49;;;;;;;9.23;4.30;;;9.30;83.90;;;;;;5054572;28;20047;-79
2021/12/05 04:57:14;;;;;;;8.27;3.83;;;9.30;83.90;;;;;;5022420;28;20022;-79
2021/12/05 04:59:46;;;;;;;7.75;3.50;;;9.30;83.90;;;;;;5031040;28;20072;-79
2021/12/05 05:02:12;;;;;;;8.98;3.78;;;9.30;83.90;;;;;;5030997;28;20033;-79
2021/12/05 05:04:45;;;;;;;9.57;3.65;;;9.30;83.90;;;;;;5030969;28;20068;-78
2021/12/05 05:07:20;;;;;;;11.15;4.13;;;9.30;83.80;;;;;;5015806;28;20567;-79
2021/12/05 05:09:47;;;;;;;9.40;3.42;;;9.20;84.20;;;;;;5013956;28;20030;-78
2021/12/05 05:12:13;;;;;;;9.25;3.90;;;9.30;83.70;;;;;;5030334;28;20036;-79
2021/12/05 05:14:39;;;;;;;8.50;3.30;;;9.20;83.60;;;;;;5015059;28;20025;-79
2021/12/05 05:17:04;;;;;;;11.57;3.45;;;9.30;83.70;;;;;;5013899;28;20018;-79
2021/12/05 05:19:36;;;;;;;10.45;3.53;;;9.30;83.60;;;;;;5030231;28;20061;-79
2021/12/05 05:22:16;;;;;;;9.35;3.30;;;9.20;83.60;;;;;;5030200;28;20052;-78
2021/12/05 05:27:46;;;;;;;10.43;3.50;;;9.30;83.60;;;;;;5014924;28;20022;-78
2021/12/05 05:46:50;;;;;;;8.93;3.20;;;9.30;83.50;;;;;;5050375;28;20175;-76
2021/12/05 05:52:15;;;;;;;9.40;3.38;;;9.20;83.40;;;;;;5010611;28;20060;-78
2021/12/05 05:54:45;;;;;;;7.80;3.20;;;9.30;83.50;;;;;;5032077;28;20651;-79
2021/12/05 05:57:20;;;;;;;11.43;3.70;;;9.30;83.50;;;;;;5031940;28;20603;-78
2021/12/05 05:59:55;;;;;;;9.32;3.50;;;9.20;83.40;;;;;;5031783;28;20117;-78
2021/12/05 06:05:06;;;;;;;9.60;3.53;;;9.30;83.50;;;;;;5033625;28;20053;-78
2021/12/05 06:07:33;;;;;;;8.63;3.50;;;9.20;83.50;;;;;;5031931;28;20026;-78
2021/12/05 06:09:59;;;;;;;9.32;3.08;;;9.20;83.60;;;;;;5031748;28;20026;-79
2021/12/05 06:12:24;;;;;;;9.90;3.35;;;9.20;83.60;;;;;;5031603;28;20032;-78
2021/12/05 06:14:50;;;;;;;8.35;3.38;;;9.30;83.80;;;;;;5032145;28;20029;-79
2021/12/05 06:17:18;;;;;;;8.25;3.20;;;9.20;83.80;;;;;;5032099;28;20028;-79
2021/12/05 06:19:43;;;;;;;8.55;3.63;;;9.30;83.90;;;;;;5031722;28;20097;-79
2021/12/05 06:22:09;;;;;;;9.70;3.40;;;9.20;83.90;;;;;;5031974;28;20033;-79
2021/12/05 06:24:35;;;;;;;9.48;3.38;;;9.30;84.00;;;;;;5033193;28;20029;-78
2021/12/05 06:27:01;;;;;;;9.02;3.13;;;9.30;84.10;;;;;;5031637;28;20389;-79
2021/12/05 06:29:33;;;;;;;8.05;3.40;;;9.20;84.00;;;;;;5031740;28;20028;-78
2021/12/05 06:32:40;;;;;;;7.72;3.13;;;9.20;84.10;;;;;;5031508;28;20125;-79
2021/12/05 06:37:54;;;;;;;7.65;3.10;;;9.30;83.80;;;;;;5032842;28;20121;-78
2021/12/05 06:47:55;;;;;;;6.88;2.72;;;9.40;83.50;;;;;;5032547;28;20075;-79
2021/12/05 06:50:21;;;;;;;9.65;3.40;;;9.30;83.30;;;;;;5031185;28;20033;-79
2021/12/05 06:52:46;;;;;;;8.60;3.25;;;9.40;83.40;;;;;;5033142;28;20029;-79
2021/12/05 06:55:14;;;;;;;8.88;3.47;;;9.40;83.40;;;;;;5032413;28;20060;-80
2021/12/05 06:57:40;;;;;;;9.05;2.97;;;9.40;83.30;;;;;;5033438;28;20370;-79
2021/12/05 07:00:11;;;;;;;9.05;3.22;;;9.40;83.20;;;;;;5032207;28;20030;-79
2021/12/05 07:02:37;;;;;;;11.63;3.17;;;9.40;83.20;;;;;;5030123;28;20032;-80
2021/12/05 07:07:33;;;;;;;10.95;3.20;;;9.40;83.10;;;;;;5031269;28;20404;-80
2021/12/05 07:09:59;;;;;;;9.63;2.95;;;9.40;83.10;;;;;;5023650;28;20112;-79
2021/12/05 07:14:55;;;;;;;6.95;3.00;;;9.40;83.10;;;;;;5013958;28;20022;-79
2021/12/05 07:23:02;;;;;;;9.43;2.95;;;9.40;83.20;;;;;;5002470;28;20038;-80
2021/12/05 07:25:43;;;;;;;11.50;3.72;;;9.40;83.40;;;;;;5012486;28;20029;-79
2021/12/05 07:42:04;;;;;;;9.95;3.33;;;9.20;84.30;;;;;;5013881;28;20115;-79
2021/12/05 07:44:31;;;;;;;7.97;2.92;;;9.20;84.40;;;;;;5011990;28;20052;-79
2021/12/05 07:46:57;;;;;;;6.40;2.88;;;9.20;84.40;;;;;;5029172;28;20485;-78
2021/12/05 07:49:22;;;;;;;9.82;3.47;;;9.20;84.50;;;;;;5017789;28;20036;-81
2021/12/05 07:51:49;;;;;;;8.40;3.45;;;9.20;84.60;;;;;;5035074;28;20080;-82
2021/12/05 07:54:30;;;;;;;8.50;2.92;;;9.20;84.60;;;;;;5033080;28;20395;-80
2021/12/05 08:15:59;;;;;;;9.93;3.20;;;9.20;84.70;;;;;;5033066;28;20032;-80
2021/12/05 08:18:27;;;;;;;9.93;3.03;;;9.20;84.70;;;;;;5012880;28;20037;-80
2021/12/05 08:20:53;;;;;;;10.00;3.20;;;9.20;84.70;;;;;;5012956;28;20026;-79
2021/12/05 08:23:18;;;;;;;10.40;2.97;;;9.20;84.60;;;;;;5012255;28;20073;-79
2021/12/05 08:25:52;;;;;;;8.75;2.63;;;9.20;84.50;;;;;;5011429;28;20576;-80
2021/12/05 08:28:31;;;;;;;10.27;2.83;;;9.20;84.20;;;;;;5013033;28;20079;-80
2021/12/05 08:31:26;;;;;;;12.82;3.30;;;9.20;83.80;;;;;;5012608;28;20164;-81
2021/12/05 08:42:26;;;;;;;10.48;2.95;;;9.30;84.00;;;;;;5013759;28;20033;-82
2021/12/05 09:25:56;;;;;;;5.72;1.90;;;9.30;83.80;;;;;;5011512;28;20532;-82
2021/12/05 10:12:39;;;;;;;8.40;3.28;;;9.30;82.30;;;;;;5032244;28;20029;-82
2021/12/05 10:26:37;;;;;;;6.55;2.80;;;9.30;83.00;;;;;;5031269;28;20040;-80
2021/12/05 10:34:16;;;;;;;6.78;2.67;;;9.30;83.10;;;;;;5030937;28;20066;-81
2021/12/05 10:36:42;;;;;;;5.45;2.63;;;9.40;83.20;;;;;;5029680;28;20021;-83
2021/12/05 10:39:19;;;;;;;8.10;2.92;;;9.30;83.20;;;;;;5029135;28;20508;-82
2021/12/05 10:44:12;;;;;;;10.70;3.17;;;9.30;83.30;;;;;;5032613;28;20501;-80
2021/12/05 10:46:40;;;;;;;9.07;3.05;;;9.30;83.40;;;;;;5034570;28;20030;-82
2021/12/05 10:49:12;;;;;;;6.68;2.40;;;9.30;83.40;;;;;;5033267;28;20025;-83
2021/12/05 10:51:47;;;;;;;6.95;2.80;;;9.30;83.50;;;;;;5032206;28;20025;-82
2021/12/05 10:54:17;;;;;;;5.78;2.38;;;9.30;83.60;;;;;;5033102;28;20037;-81
2021/12/05 10:56:49;;;;;;;7.38;2.53;;;9.30;83.60;;;;;;5033570;28;20060;-80
2021/12/05 10:59:21;;;;;;;7.88;2.63;;;9.30;83.50;;;;;;5031853;28;20416;-80
2021/12/05 11:02:01;;;;;;;6.60;2.60;;;9.30;83.60;;;;;;5032002;28;20052;-81
2021/12/05 11:04:54;;;;;;;5.85;2.50;;;9.30;83.50;;;;;;5033586;28;20586;-80
2021/12/05 11:07:21;;;;;;;5.53;2.35;;;9.30;83.60;;;;;;5045944;28;20033;-82
2021/12/05 11:09:50;;;;;;;8.20;2.97;;;9.30;83.70;;;;;;5032038;28;20037;-81
2021/12/05 11:12:23;;;;;;;7.25;2.72;;;9.40;83.80;;;;;;5032216;28;20021;-79
2021/12/05 11:15:02;;;;;;;13.52;2.90;;;9.40;83.70;;;;;;5031745;28;20063;-81
2021/12/05 11:17:31;;;;;;;6.93;2.38;;;9.40;83.80;;;;;;5031074;28;20032;-81
2021/12/05 11:20:03;;;;;;;8.80;2.83;;;9.40;83.80;;;;;;5033254;28;20030;-81
2021/12/05 11:22:36;;;;;;;8.48;3.05;;;9.40;83.70;;;;;;5033000;28;20045;-81
2021/12/05 11:25:06;;;;;;;7.20;2.78;;;9.40;83.60;;;;;;5032575;28;20860;-82
2021/12/05 11:27:42;;;;;;;6.30;2.42;;;9.40;83.60;;;;;;5034171;28;20048;-82
2021/12/05 11:30:15;;;;;;;6.03;2.40;;;9.40;83.60;;;;;;5032744;28;20029;-83
2021/12/05 11:32:50;;;;;;;7.80;3.40;;;9.40;83.60;;;;;;5032222;28;20391;-80
2021/12/05 11:35:19;;;;;;;8.27;2.63;;;9.40;83.60;;;;;;5033897;28;20021;-81
2021/12/05 11:37:59;;;;;;;5.45;2.30;;;9.40;83.60;;;;;;5032401;28;20097;-82
2021/12/05 11:40:41;;;;;;;8.93;2.80;;;9.40;83.70;;;;;;5032167;28;20079;-81
2021/12/05 11:43:07;;;;;;;9.25;2.72;;;9.40;83.80;;;;;;5032168;28;20041;-81
2021/12/05 11:45:53;;;;;;;7.03;2.70;;;9.40;83.80;;;;;;5033547;28;20083;-84
2021/12/05 11:48:24;;;;;;;7.47;2.72;;;9.40;83.90;;;;;;5030817;28;20021;-80
2021/12/05 11:50:51;;;;;;;7.78;2.55;;;9.40;83.90;;;;;;5029630;28;20120;-78
2021/12/05 11:53:34;;;;;;;7.35;2.38;;;9.40;84.00;;;;;;5031048;28;20061;-78
2021/12/05 11:55:59;;;;;;;6.35;2.50;;;9.40;83.50;;;;;;5030080;28;20022;-80
2021/12/05 11:58:25;;;;;;;8.23;2.92;;;9.40;83.00;;;;;;5030789;28;20036;-82
2021/12/05 12:00:51;;;;;;;9.32;2.67;;;9.40;83.10;;;;;;5032560;28;20029;-81
2021/12/05 12:03:30;;;;;;;8.35;3.03;;;9.40;82.80;;;;;;5031081;28;20940;-81
2021/12/05 12:05:55;;;;;;;15.75;2.92;;;9.40;82.60;;;;;;5031054;28;20029;-81
2021/12/05 12:08:21;;;;;;;8.95;3.10;;;9.30;82.30;;;;;;5030901;28;20079;-81
2021/12/05 12:10:57;;;;;;;11.80;4.07;;;9.40;82.30;;;;;;5030640;28;20100;-84
2021/12/05 12:13:28;;;;;;;12.88;5.63;;;9.40;82.20;;;;;;5029554;28;20488;-80
2021/12/05 12:16:00;;;;;;;11.13;5.20;;;9.40;82.20;;;;;;5030101;28;20060;-81
2021/12/05 12:18:33;;;;;;;13.23;5.15;;;9.40;82.10;;;;;;5014935;28;20398;-82
2021/12/05 12:21:04;;;;;;;13.18;5.07;;;9.40;81.90;;;;;;5010753;28;20485;-81
2021/12/05 12:23:30;;;;;;;11.32;3.97;;;9.40;81.80;;;;;;5011792;28;20030;-81
2021/12/05 12:25:58;;;;;;;8.23;3.83;;;9.40;81.70;;;;;;5029638;28;20029;-80
2021/12/05 12:28:24;;;;;;;10.57;3.70;;;9.40;81.60;;;;;;5031828;28;20029;-81
2021/12/05 12:31:00;;;;;;;9.98;3.75;;;9.40;81.60;;;;;;5031767;28;20025;-81
2021/12/05 12:33:36;;;;;;;7.18;3.33;;;9.40;81.70;;;;;;5029964;28;20021;-80
2021/12/05 12:36:03;;;;;;;8.93;3.72;;;9.40;81.70;;;;;;5031006;28;20033;-81
2021/12/05 12:38:28;;;;;;;7.53;3.38;;;9.40;81.30;;;;;;5030484;28;20029;-83
2021/12/05 12:41:00;;;;;;;8.05;3.20;;;9.40;81.50;;;;;;5031174;28;20071;-80
2021/12/05 12:43:48;;;;;;;9.70;3.67;;;9.40;81.70;;;;;;5030359;28;20030;-82
2021/12/05 12:46:25;;;;;;;13.80;3.92;;;9.40;82.00;;;;;;5019776;28;20046;-80
2021/12/05 12:49:12;;;;;;;16.08;4.38;;;9.50;82.40;;;;;;5031581;28;20398;-82
2021/12/05 12:52:09;;;;;;;17.35;3.88;;;9.50;82.40;;;;;;5019298;28;20060;-83
2021/12/05 12:54:57;;;;;;;17.92;4.10;;;9.50;82.60;;;;;;5014635;28;20042;-82
2021/12/05 12:57:32;;;;;;;14.13;3.53;;;9.50;82.50;;;;;;5031094;28;20033;-81
2021/12/05 13:00:10;;;;;;;11.35;3.40;;;9.50;82.50;;;;;;5030596;28;20035;-80
2021/12/05 13:04:07;;;;;;;11.40;3.53;;;9.60;82.70;;;;;;5030958;28;20026;-80
2021/12/05 13:11:50;;;;;;;9.80;3.55;;;9.60;83.10;;;;;;5029474;28;20159;-80
2021/12/05 13:14:17;;;;;;;22.42;3.55;;;9.60;83.30;;;;;;5031373;28;20116;-81
2021/12/05 13:16:44;;;;;;;13.57;3.65;;;9.60;83.60;;;;;;5031413;28;20029;-80
2021/12/05 13:19:12;;;;;;;17.52;4.10;;;9.60;83.40;;;;;;5033421;28;20091;-81
2021/12/05 13:21:42;;;;;;;17.42;4.22;;;9.60;83.20;;;;;;5033359;28;20029;-78
2021/12/05 13:24:25;;;;;;;16.85;4.88;;;9.50;83.20;;;;;;5031827;28;20160;-81
2021/12/05 13:27:03;;;;;;;15.18;3.80;;;9.50;82.50;;;;;;5033581;28;20549;-81
2021/12/05 13:29:31;;;;;;;9.20;3.50;;;9.50;82.20;;;;;;5031970;28;20188;-80
2021/12/05 13:32:10;;;;;;;15.35;4.00;;;9.50;82.30;;;;;;5031574;28;20026;-81
2021/12/05 13:34:42;;;;;;;11.73;3.90;;;9.50;83.50;;;;;;5030856;28;20075;-82
2021/12/05 13:37:13;;;;;;;;;;;9.50;83.70;;;;;;5032535;28;20501;-81
2021/12/05 13:39:47;;;;;;;13.93;3.72;;;9.50;83.20;;;;;;5030897;28;19912;-83
2021/12/05 13:42:23;;;;;;;16.55;3.58;;;9.60;83.10;;;;;;5030646;28;20026;-84
2021/12/05 13:45:05;;;;;;;19.15;4.68;;;9.60;84.10;;;;;;5030377;28;20025;-83
2021/12/05 13:47:42;;;;;;;13.23;3.60;;;9.60;84.30;;;;;;5031769;28;20018;-82
2021/12/05 13:50:29;;;;;;;11.82;3.65;;;9.60;84.30;;;;;;5031943;28;20021;-81
2021/12/05 13:53:13;;;;;;;15.55;3.83;;;9.60;84.20;;;;;;5030633;28;20033;-81
2021/12/05 13:55:59;;;;;;;12.55;3.65;;;9.60;84.90;;;;;;5030567;28;20025;-80
2021/12/05 13:58:44;;;;;;;12.57;3.50;;;9.70;85.40;;;;;;5030866;28;20666;-81
2021/12/05 14:01:15;;;;;;;8.10;3.20;;;9.70;85.60;;;;;;5031951;28;20025;-79
2021/12/05 14:03:59;;;;;;;9.80;3.08;;;9.80;86.00;;;;;;5033034;28;20022;-82
2021/12/05 14:07:01;;;;;;;7.75;2.72;;;9.80;86.50;;;;;;5030822;28;20029;-83
2021/12/05 14:09:40;;;;;;;13.15;3.38;;;9.80;86.80;;;;;;5030688;28;20072;-84
2021/12/05 14:12:10;;;;;;;8.85;3.25;;;9.90;87.10;;;;;;5029345;28;20033;-82
2021/12/05 14:14:38;;;;;;;9.82;3.58;;;9.90;87.00;;;;;;5030025;28;20108;-80
2021/12/05 14:17:11;;;;;;;7.35;3.05;;;10.00;87.50;;;;;;5030781;28;20025;-85
2021/12/05 14:19:40;;;;;;;8.50;3.22;;;10.00;87.80;;;;;;5029597;28;20133;-81
2021/12/05 14:22:08;;;;;;;8.00;2.70;;;10.10;88.50;;;;;;5030925;28;20026;-82
2021/12/05 14:24:37;;;;;;;9.35;2.78;;;10.10;89.00;;;;;;5030564;28;20032;-80
2021/12/05 14:27:07;;;;;;;9.50;2.90;;;10.20;89.40;;;;;;5030180;28;20025;-82
2021/12/05 14:29:35;;;;;;;10.32;3.40;;;10.20;90.00;;;;;;5031105;28;20049;-82
2021/12/05 14:32:13;;;;;;;11.10;3.00;;;10.30;90.50;;;;;;5030210;28;20048;-81
2021/12/05 14:34:40;;;;;;;8.30;3.00;;;10.40;90.80;;;;;;5030879;28;20037;-80
2021/12/05 14:37:13;;;;;;;7.68;2.60;;;10.50;91.00;;;;;;5031163;28;20029;-82
2021/12/05 14:39:43;;;;;;;8.00;2.70;;;10.60;91.10;;;;;;5030560;28;20481;-81
2021/12/05 14:42:15;;;;;;;9.20;3.00;;;10.60;91.00;;;;;;5033036;28;20033;-80
2021/12/05 14:44:42;;;;;;;9.98;2.72;;;10.70;91.30;;;;;;5032136;28;20022;-82
2021/12/05 14:47:13;;;;;;;9.13;3.00;;;10.70;91.50;;;;;;5031731;28;20022;-80
2021/12/05 14:49:43;;;;;;;7.85;3.10;;;10.80;91.40;;;;;;5031739;28;20140;-81
2021/12/05 14:52:13;;;;;;;10.30;3.05;;;10.80;91.60;;;;;;5032875;28;20061;-82
2021/12/05 14:54:40;;;;;;;9.30;3.27;;;10.80;91.80;;;;;;5030948;28;20033;-81
2021/12/05 14:57:10;;;;;;;12.05;3.40;;;10.90;91.70;;;;;;5032165;28;20175;-80
2021/12/05 14:59:36;;;;;;;10.77;3.55;;;10.90;91.60;;;;;;5031967;28;20169;-80
2021/12/05 15:02:04;;;;;;;10.27;3.08;;;10.90;91.50;;;;;;5031553;28;20046;-81
2021/12/05 15:04:33;;;;;;;8.25;2.60;;;10.90;91.50;;;;;;5029264;28;20029;-80
2021/12/05 15:06:59;;;;;;;11.10;3.20;;;11.00;91.80;;;;;;5028991;28;20750;-81
2021/12/05 15:09:28;;;;;;;9.30;3.47;;;11.00;91.80;;;;;;5027791;28;20053;-81
2021/12/05 15:11:58;;;;;;;8.50;2.90;;;11.00;91.70;;;;;;5027640;28;20033;-82
2021/12/05 15:14:24;;;;;;;9.95;3.15;;;11.00;91.70;;;;;;5029520;28;20089;-85
2021/12/05 15:17:03;;;;;;;8.98;2.95;;;11.00;91.70;;;;;;5028517;28;20025;-81
2021/12/05 15:19:29;;;;;;;10.52;3.08;;;11.00;91.60;;;;;;5029830;28;20074;-82
2021/12/05 15:21:55;;;;;;;9.82;3.05;;;11.00;91.40;;;;;;5028228;28;20116;-80
2021/12/05 15:24:25;;;;;;;9.98;3.15;;;11.00;91.20;;;;;;5028009;28;20064;-81
2021/12/05 15:26:52;;;;;;;8.35;3.00;;;11.00;91.00;;;;;;5028290;28;20025;-81
2021/12/05 15:29:17;;;;;;;8.15;2.92;;;11.00;90.60;;;;;;5029219;28;20036;-81
2021/12/05 15:31:44;;;;;;;11.35;3.40;;;11.10;90.60;;;;;;5031321;28;20041;-80
2021/12/05 15:34:27;;;;;;;10.40;3.38;;;11.10;90.80;;;;;;5031035;28;20026;-84
2021/12/05 15:36:54;;;;;;;9.07;3.28;;;11.00;90.60;;;;;;5031140;28;20052;-81
2021/12/05 15:39:24;;;;;;;8.45;2.83;;;10.90;90.50;;;;;;5030927;28;20025;-79
2021/12/05 15:41:52;;;;;;;10.27;3.40;;;10.90;90.40;;;;;;5031333;28;20144;-81
2021/12/05 15:44:39;;;;;;;7.85;3.20;;;10.80;90.40;;;;;;5030932;28;20029;-80
2021/12/05 15:47:09;;;;;;;6.40;2.78;;;10.80;90.30;;;;;;5031554;28;20105;-81
2021/12/05 15:50:08;;;;;;;7.18;2.97;;;10.70;90.10;;;;;;5031413;28;20029;-85
2021/12/05 15:52:40;;;;;;;8.50;3.72;;;10.70;90.20;;;;;;5019663;28;20488;-81
2021/12/05 15:55:20;;;;;;;6.57;3.38;;;10.70;90.00;;;;;;5030365;28;20191;-83
2021/12/05 15:57:50;;;;;;;6.83;3.27;;;10.70;90.00;;;;;;5031368;28;20030;-81
2021/12/05 16:00:27;;;;;;;8.02;3.08;;;10.70;89.90;;;;;;5029901;28;20029;-85
2021/12/05 16:03:14;;;;;;;10.75;3.40;;;10.60;89.80;;;;;;5031313;28;20104;-80
2021/12/05 16:05:42;;;;;;;7.10;3.33;;;10.60;89.60;;;;;;5030182;28;20463;-82
2021/12/05 16:08:14;;;;;;;7.43;3.42;;;10.60;89.30;;;;;;5029765;28;20102;-82
2021/12/05 16:10:46;;;;;;;8.40;3.60;;;10.50;89.00;;;;;;5030925;28;20033;-81
2021/12/05 16:13:16;;;;;;;9.02;4.25;;;10.40;88.70;;;;;;5021639;28;20652;-80
2021/12/05 16:15:45;;;;;;;9.77;4.15;;;10.40;88.80;;;;;;5011065;28;20577;-82
2021/12/05 16:18:11;;;;;;;8.77;4.15;;;10.30;88.80;;;;;;5009728;28;20868;-80
2021/12/05 16:20:41;;;;;;;9.95;4.60;;;10.20;88.10;;;;;;5010919;28;20132;-79
2021/12/05 16:23:25;;;;;;;9.60;4.40;;;10.20;89.30;;;;;;5010740;28;20030;-80
2021/12/05 16:25:59;;;;;;;9.52;4.32;;;10.20;88.50;;;;;;5010419;28;20133;-84
2021/12/05 16:28:29;;;;;;;8.50;4.93;;;10.20;88.00;;;;;;5015326;28;20061;-84
2021/12/05 16:31:02;;;;;;;8.88;4.32;;;10.20;87.50;;;;;;5013840;28;20080;-82
2021/12/05 16:33:29;;;;;;;9.35;4.53;;;10.20;87.50;;;;;;5013502;28;20537;-82
2021/12/05 16:35:55;;;;;;;8.50;4.40;;;10.20;87.60;;;;;;5012852;28;20045;-82
2021/12/05 16:38:44;;;;;;;10.52;4.50;;;10.20;87.10;;;;;;5012337;28;20049;-81
2021/12/05 16:41:14;;;;;;;10.15;4.65;;;10.20;87.00;;;;;;5011139;28;20513;-81
2021/12/05 16:43:52;;;;;;;12.52;5.13;;;10.20;86.90;;;;;;5011548;28;20037;-82
2021/12/05 16:46:31;;;;;;;37.00;6.20;;;10.20;87.10;;;;;;5011169;28;20121;-81
2021/12/05 16:49:00;;;;;;;17.80;5.97;;;10.20;86.50;;;;;;5012261;28;20413;-83
2021/12/05 16:51:30;;;;;;;16.05;5.65;;;10.30;85.60;;;;;;5012149;28;20029;-81
2021/12/05 16:54:03;;;;;;;16.27;5.65;;;10.40;85.10;;;;;;5012116;28;20105;-83
2021/12/05 16:56:44;;;;;;;19.92;6.13;;;10.30;84.80;;;;;;5012183;28;20481;-81
2021/12/05 16:59:25;;;;;;;10.75;5.30;;;10.30;84.60;;;;;;5010342;28;20034;-82
2021/12/05 17:02:06;;;;;;;;;;;10.30;84.70;;;;;;5011829;28;20029;-83
2021/12/05 17:04:46;;;;;;;11.05;5.20;;;10.30;84.70;;;;;;5009917;28;19927;-79
2021/12/05 17:07:15;;;;;;;8.37;5.00;;;10.30;84.90;;;;;;5009935;28;20034;-82
2021/12/05 17:09:42;;;;;;;10.80;4.97;;;10.20;84.90;;;;;;5011180;28;20034;-82
2021/12/05 17:12:31;;;;;;;9.70;5.20;;;10.20;85.10;;;;;;5009978;28;20036;-82
2021/12/05 17:15:16;;;;;;;10.13;5.07;;;10.20;85.40;;;;;;5011144;28;20144;-81
2021/12/05 17:17:44;;;;;;;15.77;5.60;;;10.20;85.30;;;;;;5009668;28;20025;-81
2021/12/05 17:20:28;;;;;;;9.77;5.10;;;10.10;85.30;;;;;;5009102;28;20033;-81
2021/12/05 17:22:58;;;;;;;8.55;5.18;;;10.10;85.40;;;;;;5005266;28;20093;-82
2021/12/05 17:25:36;;;;;;;9.70;4.80;;;10.00;85.70;;;;;;5005839;28;20658;-81
2021/12/05 17:28:07;;;;;;;8.07;4.93;;;10.00;85.80;;;;;;5006766;28;20030;-81
2021/12/05 17:30:33;;;;;;;8.20;4.53;;;10.00;86.10;;;;;;5007884;28;20060;-82
2021/12/05 17:32:59;;;;;;;10.45;4.82;;;9.90;86.10;;;;;;5007798;28;20486;-81
2021/12/05 17:35:29;;;;;;;9.43;5.05;;;9.90;86.30;;;;;;5007148;28;20148;-82
2021/12/05 17:37:56;;;;;;;10.15;4.80;;;9.90;86.40;;;;;;5011455;28;20051;-81
2021/12/05 17:40:22;;;;;;;7.25;4.65;;;9.90;86.50;;;;;;5011302;28;20159;-81
2021/12/05 17:42:48;;;;;;;9.90;5.13;;;9.90;86.60;;;;;;5028199;28;20084;-81
2021/12/05 17:45:16;;;;;;;10.52;5.05;;;9.80;86.60;;;;;;5012820;28;20096;-81
2021/12/05 17:47:42;;;;;;;9.88;4.88;;;9.80;86.70;;;;;;5010260;28;20048;-80
2021/12/05 17:50:15;;;;;;;8.73;5.10;;;9.80;86.80;;;;;;5011499;28;20504;-81
2021/12/05 17:52:42;;;;;;;8.70;4.78;;;9.80;87.00;;;;;;5011016;28;20919;-81
2021/12/05 17:55:29;;;;;;;8.65;4.88;;;9.80;86.90;;;;;;5012165;28;20024;-81
2021/12/05 17:58:01;;;;;;;8.65;4.68;;;9.80;86.90;;;;;;5010401;28;20026;-80
2021/12/05 18:00:38;;;;;;;8.75;4.72;;;9.80;87.10;;;;;;5026431;28;20026;-81
2021/12/05 18:03:10;;;;;;;9.07;5.13;;;9.80;87.10;;;;;;5009968;28;20139;-80
2021/12/05 18:05:48;;;;;;;10.63;5.28;;;9.80;87.10;;;;;;5009485;28;20036;-78
2021/12/05 18:08:18;;;;;;;10.30;5.53;;;9.80;87.10;;;;;;5009351;28;20049;-80
2021/12/05 18:10:48;;;;;;;10.27;5.32;;;9.70;87.00;;;;;;5010361;28;20029;-80
2021/12/05 18:13:15;;;;;;;10.40;5.50;;;9.80;87.10;;;;;;5010376;28;20018;-81